Terminal Aerodrome Forecast
Issued by NWS Quad Cities IA IL

Home | Current Version | Previous Version | Text Only | Print | Product List | Glossary On
Versions: 1 2 3 4 5 6 7 8 9 10 11 12 13 14 15 16 17 18 19 20 21 22 23 24 25 26 27 28 29 30 31 32 33 34 35
000
FTUS43 KDVN 211732
TAFDBQ
TAF
KDBQ 211732Z 2118/2218 20013KT P6SM FEW040 SCT250
     FM220000 19005KT P6SM FEW040 SCT200
     FM220800 20004KT 4SM BR VCTS SCT040CB BKN120
     FM221500 20006KT 6SM HZ SCT040 BKN120=

USA.gov is the U.S. government's official web portal to all federal, state and local government web resources and services.